sensor_id;sensor_type;location;lat;lon;timestamp;pressure;altitude;pressure_sealevel;temperature;humidity
64711;BME280;51139;45.626;6.850;2023-03-19T00:01:56;81729.84;;;5.21;71.30
64711;BME280;51139;45.626;6.850;2023-03-19T00:04:23;81732.31;;;5.11;70.33
64711;BME280;51139;45.626;6.850;2023-03-19T00:06:49;81731.72;;;4.35;74.95
64711;BME280;51139;45.626;6.850;2023-03-19T00:09:15;81732.44;;;4.35;75.74
64711;BME280;51139;45.626;6.850;2023-03-19T00:11:41;81736.31;;;4.81;74.90
64711;BME280;51139;45.626;6.850;2023-03-19T00:14:07;81731.75;;;4.58;74.49
64711;BME280;51139;45.626;6.850;2023-03-19T00:16:33;81738.94;;;4.81;72.39
64711;BME280;51139;45.626;6.850;2023-03-19T00:18:58;81739.09;;;4.44;74.28
64711;BME280;51139;45.626;6.850;2023-03-19T00:21:24;81734.94;;;4.80;74.04
64711;BME280;51139;45.626;6.850;2023-03-19T00:23:50;81740.53;;;3.85;79.26
64711;BME280;51139;45.626;6.850;2023-03-19T00:26:16;81743.81;;;3.86;80.27
64711;BME280;51139;45.626;6.850;2023-03-19T00:28:41;81742.06;;;3.80;79.93
64711;BME280;51139;45.626;6.850;2023-03-19T00:31:14;81748.56;;;3.87;81.73
64711;BME280;51139;45.626;6.850;2023-03-19T00:33:41;81749.69;;;4.07;80.50
64711;BME280;51139;45.626;6.850;2023-03-19T00:36:07;81743.34;;;5.02;74.03
64711;BME280;51139;45.626;6.850;2023-03-19T00:38:33;81748.78;;;5.04;73.30
64711;BME280;51139;45.626;6.850;2023-03-19T00:41:00;81757.63;;;4.38;76.80
64711;BME280;51139;45.626;6.850;2023-03-19T00:43:26;81757.72;;;4.09;79.15
64711;BME280;51139;45.626;6.850;2023-03-19T00:45:52;81757.59;;;3.71;81.01
64711;BME280;51139;45.626;6.850;2023-03-19T00:48:17;81765.25;;;4.13;80.36
64711;BME280;51139;45.626;6.850;2023-03-19T00:50:43;81758.19;;;4.60;77.43
64711;BME280;51139;45.626;6.850;2023-03-19T00:53:08;81759.19;;;4.42;75.78
64711;BME280;51139;45.626;6.850;2023-03-19T00:55:34;81761.72;;;4.94;73.38
64711;BME280;51139;45.626;6.850;2023-03-19T00:58:00;81757.16;;;4.71;74.04
64711;BME280;51139;45.626;6.850;2023-03-19T01:00:26;81758.91;;;4.84;74.52
64711;BME280;51139;45.626;6.850;2023-03-19T01:02:52;81759.56;;;4.61;75.69
64711;BME280;51139;45.626;6.850;2023-03-19T01:05:18;81769.06;;;5.03;73.82
64711;BME280;51139;45.626;6.850;2023-03-19T01:07:43;81771.84;;;4.82;74.58
64711;BME280;51139;45.626;6.850;2023-03-19T01:10:09;81759.44;;;5.21;73.12
64711;BME280;51139;45.626;6.850;2023-03-19T01:12:35;81770.44;;;4.81;73.44
64711;BME280;51139;45.626;6.850;2023-03-19T01:15:01;81768.97;;;4.41;77.50
64711;BME280;51139;45.626;6.850;2023-03-19T01:17:26;81770.00;;;4.30;79.56
64711;BME280;51139;45.626;6.850;2023-03-19T01:19:52;81768.78;;;4.39;78.42
64711;BME280;51139;45.626;6.850;2023-03-19T01:22:17;81773.41;;;4.62;76.81
64711;BME280;51139;45.626;6.850;2023-03-19T01:24:43;81768.66;;;4.52;76.78
64711;BME280;51139;45.626;6.850;2023-03-19T01:27:08;81761.97;;;4.36;77.28
64711;BME280;51139;45.626;6.850;2023-03-19T01:29:34;81762.88;;;4.38;77.14
64711;BME280;51139;45.626;6.850;2023-03-19T01:32:00;81770.28;;;4.71;76.59
64711;BME280;51139;45.626;6.850;2023-03-19T01:34:26;81762.75;;;4.91;76.36
64711;BME280;51139;45.626;6.850;2023-03-19T01:36:51;81761.19;;;5.34;72.81
64711;BME280;51139;45.626;6.850;2023-03-19T01:39:17;81761.16;;;4.80;76.25
64711;BME280;51139;45.626;6.850;2023-03-19T01:41:43;81763.94;;;4.51;79.92
64711;BME280;51139;45.626;6.850;2023-03-19T01:44:25;81763.97;;;4.59;80.63
64711;BME280;51139;45.626;6.850;2023-03-19T01:46:51;81750.34;;;5.07;78.14
64711;BME280;51139;45.626;6.850;2023-03-19T01:49:18;81754.47;;;4.40;80.58
64711;BME280;51139;45.626;6.850;2023-03-19T01:51:46;81752.50;;;4.17;84.39
64711;BME280;51139;45.626;6.850;2023-03-19T01:54:18;81740.66;;;4.40;84.24
64711;BME280;51139;45.626;6.850;2023-03-19T01:56:48;81743.69;;;4.90;80.59
64711;BME280;51139;45.626;6.850;2023-03-19T01:59:43;81739.50;;;5.03;78.74
64711;BME280;51139;45.626;6.850;2023-03-19T02:02:24;81732.31;;;5.11;78.60
64711;BME280;51139;45.626;6.850;2023-03-19T02:05:12;81739.31;;;5.08;79.26
64711;BME280;51139;45.626;6.850;2023-03-19T02:07:40;81734.94;;;5.03;78.47
64711;BME280;51139;45.626;6.850;2023-03-19T02:10:10;81743.66;;;5.37;76.08
64711;BME280;51139;45.626;6.850;2023-03-19T02:12:36;81741.41;;;4.79;79.42
64711;BME280;51139;45.626;6.850;2023-03-19T02:15:03;81738.75;;;4.63;81.61
64711;BME280;51139;45.626;6.850;2023-03-19T02:17:29;81734.59;;;5.07;78.37
64711;BME280;51139;45.626;6.850;2023-03-19T02:20:10;81741.13;;;4.15;83.09
64711;BME280;51139;45.626;6.850;2023-03-19T02:22:43;81740.28;;;4.20;85.00
64711;BME280;51139;45.626;6.850;2023-03-19T02:25:19;81743.03;;;4.06;86.09
64711;BME280;51139;45.626;6.850;2023-03-19T02:27:46;81740.78;;;4.11;88.03
64711;BME280;51139;45.626;6.850;2023-03-19T02:30:25;81735.00;;;3.60;89.09
64711;BME280;51139;45.626;6.850;2023-03-19T02:32:50;81740.28;;;4.28;87.65
64711;BME280;51139;45.626;6.850;2023-03-19T02:35:16;81735.75;;;4.28;86.42
64711;BME280;51139;45.626;6.850;2023-03-19T02:37:42;81742.97;;;4.66;83.43
64711;BME280;51139;45.626;6.850;2023-03-19T02:40:15;81734.56;;;4.76;81.71
64711;BME280;51139;45.626;6.850;2023-03-19T02:42:43;81743.44;;;4.26;83.94
64711;BME280;51139;45.626;6.850;2023-03-19T02:45:09;81739.97;;;4.47;82.81
64711;BME280;51139;45.626;6.850;2023-03-19T02:47:35;81745.97;;;3.95;87.47
64711;BME280;51139;45.626;6.850;2023-03-19T02:50:00;81739.94;;;4.39;85.53
64711;BME280;51139;45.626;6.850;2023-03-19T02:52:26;81734.00;;;4.38;84.42
64711;BME280;51139;45.626;6.850;2023-03-19T02:54:51;81735.81;;;4.67;82.76
64711;BME280;51139;45.626;6.850;2023-03-19T02:57:17;81728.63;;;4.91;80.80
64711;BME280;51139;45.626;6.850;2023-03-19T02:59:43;81735.66;;;4.88;79.90
64711;BME280;51139;45.626;6.850;2023-03-19T03:02:08;81735.47;;;4.86;79.12
64711;BME280;51139;45.626;6.850;2023-03-19T03:04:34;81731.63;;;5.03;79.23
64711;BME280;51139;45.626;6.850;2023-03-19T03:07:02;81729.84;;;5.21;77.69
64711;BME280;51139;45.626;6.850;2023-03-19T03:09:27;81734.03;;;5.24;75.64
64711;BME280;51139;45.626;6.850;2023-03-19T03:11:53;81740.16;;;5.50;74.12
64711;BME280;51139;45.626;6.850;2023-03-19T03:14:18;81728.88;;;5.65;72.46
64711;BME280;51139;45.626;6.850;2023-03-19T03:16:44;81740.50;;;5.54;73.26
64711;BME280;51139;45.626;6.850;2023-03-19T03:19:10;81739.81;;;5.22;75.52
64711;BME280;51139;45.626;6.850;2023-03-19T03:21:36;81747.34;;;4.95;76.60
64711;BME280;51139;45.626;6.850;2023-03-19T03:24:02;81749.28;;;4.87;78.87
64711;BME280;51139;45.626;6.850;2023-03-19T03:26:28;81744.38;;;5.14;76.98
64711;BME280;51139;45.626;6.850;2023-03-19T03:28:53;81748.56;;;5.33;75.42
64711;BME280;51139;45.626;6.850;2023-03-19T03:31:19;81745.59;;;5.29;74.00
64711;BME280;51139;45.626;6.850;2023-03-19T03:33:45;81748.06;;;4.72;79.88
64711;BME280;51139;45.626;6.850;2023-03-19T03:36:11;81742.44;;;4.76;81.51
64711;BME280;51139;45.626;6.850;2023-03-19T03:38:37;81745.16;;;4.16;83.18
64711;BME280;51139;45.626;6.850;2023-03-19T03:41:04;81746.25;;;4.28;83.54
64711;BME280;51139;45.626;6.850;2023-03-19T03:43:30;81747.28;;;3.36;88.18
64711;BME280;51139;45.626;6.850;2023-03-19T03:45:55;81747.81;;;2.55;96.38
64711;BME280;51139;45.626;6.850;2023-03-19T03:48:21;81754.81;;;2.60;99.36
64711;BME280;51139;45.626;6.850;2023-03-19T03:50:47;81749.50;;;2.74;100.00
64711;BME280;51139;45.626;6.850;2023-03-19T03:53:12;81741.59;;;3.16;98.30
64711;BME280;51139;45.626;6.850;2023-03-19T03:55:38;81749.78;;;3.86;92.41
64711;BME280;51139;45.626;6.850;2023-03-19T03:58:04;81749.38;;;3.67;92.03
64711;BME280;51139;45.626;6.850;2023-03-19T04:00:29;81740.88;;;3.16;92.50
64711;BME280;51139;45.626;6.850;2023-03-19T04:02:55;81747.34;;;2.65;100.00
64711;BME280;51139;45.626;6.850;2023-03-19T04:05:20;81741.84;;;2.97;98.93
64711;BME280;51139;45.626;6.850;2023-03-19T04:07:46;81748.50;;;3.35;96.44
64711;BME280;51139;45.626;6.850;2023-03-19T04:10:12;81746.88;;;4.05;90.84
64711;BME280;51139;45.626;6.850;2023-03-19T04:12:38;81753.28;;;4.64;84.39
64711;BME280;51139;45.626;6.850;2023-03-19T04:15:06;81750.31;;;3.48;89.68
64711;BME280;51139;45.626;6.850;2023-03-19T04:17:32;81745.97;;;3.50;95.00
64711;BME280;51139;45.626;6.850;2023-03-19T04:19:58;81734.03;;;3.78;90.76
64711;BME280;51139;45.626;6.850;2023-03-19T04:22:23;81741.31;;;3.28;94.00
64711;BME280;51139;45.626;6.850;2023-03-19T04:24:49;81751.09;;;3.64;92.91
64711;BME280;51139;45.626;6.850;2023-03-19T04:27:14;81743.22;;;4.16;88.18
64711;BME280;51139;45.626;6.850;2023-03-19T04:29:39;81750.25;;;4.37;84.34
64711;BME280;51139;45.626;6.850;2023-03-19T04:32:05;81744.84;;;4.27;86.07
64711;BME280;51139;45.626;6.850;2023-03-19T04:34:31;81743.44;;;4.26;86.01
64711;BME280;51139;45.626;6.850;2023-03-19T04:36:57;81754.06;;;4.13;86.67
64711;BME280;51139;45.626;6.850;2023-03-19T04:39:23;81755.88;;;4.33;84.52
64711;BME280;51139;45.626;6.850;2023-03-19T04:41:49;81746.06;;;4.34;84.16
64711;BME280;51139;45.626;6.850;2023-03-19T04:44:14;81754.31;;;3.86;87.18
64711;BME280;51139;45.626;6.850;2023-03-19T04:46:40;81756.63;;;3.53;90.29
64711;BME280;51139;45.626;6.850;2023-03-19T04:49:06;81748.25;;;3.17;93.57
64711;BME280;51139;45.626;6.850;2023-03-19T04:51:32;81761.16;;;3.52;92.76
64711;BME280;51139;45.626;6.850;2023-03-19T04:53:58;81753.97;;;3.16;94.07
64711;BME280;51139;45.626;6.850;2023-03-19T04:56:24;81763.22;;;3.83;91.50
64711;BME280;51139;45.626;6.850;2023-03-19T04:58:49;81758.78;;;4.06;89.32
64711;BME280;51139;45.626;6.850;2023-03-19T05:01:15;81767.34;;;4.15;88.45
64711;BME280;51139;45.626;6.850;2023-03-19T05:03:41;81759.25;;;4.65;83.96
64711;BME280;51139;45.626;6.850;2023-03-19T05:06:07;81761.63;;;4.24;85.34
64711;BME280;51139;45.626;6.850;2023-03-19T05:08:32;81750.56;;;3.29;92.78
64711;BME280;51139;45.626;6.850;2023-03-19T05:10:58;81755.53;;;3.11;96.08
64711;BME280;51139;45.626;6.850;2023-03-19T05:13:23;81751.47;;;3.02;97.52
64711;BME280;51139;45.626;6.850;2023-03-19T05:15:52;81756.81;;;2.97;98.79
64711;BME280;51139;45.626;6.850;2023-03-19T05:18:18;81764.38;;;3.08;99.65
64711;BME280;51139;45.626;6.850;2023-03-19T05:20:43;81768.47;;;2.67;100.00
64711;BME280;51139;45.626;6.850;2023-03-19T05:23:09;81773.44;;;2.78;100.00
64711;BME280;51139;45.626;6.850;2023-03-19T05:25:35;81767.28;;;2.97;100.00
64711;BME280;51139;45.626;6.850;2023-03-19T05:28:01;81765.69;;;2.94;100.00
64711;BME280;51139;45.626;6.850;2023-03-19T05:30:26;81766.00;;;3.11;100.00
64711;BME280;51139;45.626;6.850;2023-03-19T05:32:52;81763.50;;;2.76;100.00
64711;BME280;51139;45.626;6.850;2023-03-19T05:35:19;81772.50;;;2.68;100.00
64711;BME280;51139;45.626;6.850;2023-03-19T05:37:45;81764.03;;;3.33;97.95
64711;BME280;51139;45.626;6.850;2023-03-19T05:40:11;81766.53;;;2.88;99.80
64711;BME280;51139;45.626;6.850;2023-03-19T05:42:37;81768.66;;;3.19;100.00
64711;BME280;51139;45.626;6.850;2023-03-19T05:45:03;81773.03;;;3.53;98.74
64711;BME280;51139;45.626;6.850;2023-03-19T05:47:29;81769.81;;;3.39;97.37
64711;BME280;51139;45.626;6.850;2023-03-19T05:49:55;81769.16;;;3.46;96.39
64711;BME280;51139;45.626;6.850;2023-03-19T05:52:21;81782.19;;;2.59;100.00
64711;BME280;51139;45.626;6.850;2023-03-19T05:54:46;81778.59;;;2.28;100.00
64711;BME280;51139;45.626;6.850;2023-03-19T05:57:14;81781.28;;;2.36;100.00
64711;BME280;51139;45.626;6.850;2023-03-19T05:59:40;81776.91;;;3.02;100.00
64711;BME280;51139;45.626;6.850;2023-03-19T06:02:06;81779.09;;;3.40;97.37
64711;BME280;51139;45.626;6.850;2023-03-19T06:04:31;81780.69;;;2.93;97.90
64711;BME280;51139;45.626;6.850;2023-03-19T06:06:57;81782.50;;;2.77;99.17
64711;BME280;51139;45.626;6.850;2023-03-19T06:09:22;81781.06;;;2.97;99.62
64711;BME280;51139;45.626;6.850;2023-03-19T06:11:48;81788.84;;;3.69;94.29
64711;BME280;51139;45.626;6.850;2023-03-19T06:14:13;81781.09;;;3.26;95.76
64711;BME280;51139;45.626;6.850;2023-03-19T06:16:39;81788.00;;;3.82;94.25
64711;BME280;51139;45.626;6.850;2023-03-19T06:19:04;81781.84;;;3.05;96.38
64711;BME280;51139;45.626;6.850;2023-03-19T06:21:30;81783.78;;;2.62;100.00
64711;BME280;51139;45.626;6.850;2023-03-19T06:23:56;81791.34;;;2.95;100.00
64711;BME280;51139;45.626;6.850;2023-03-19T06:26:22;81794.50;;;3.23;97.25
64711;BME280;51139;45.626;6.850;2023-03-19T06:28:47;81798.38;;;3.29;93.48
64711;BME280;51139;45.626;6.850;2023-03-19T06:31:13;81805.81;;;3.17;94.19
64711;BME280;51139;45.626;6.850;2023-03-19T06:33:38;81799.41;;;2.97;95.66
64711;BME280;51139;45.626;6.850;2023-03-19T06:36:04;81795.00;;;2.71;99.27
64711;BME280;51139;45.626;6.850;2023-03-19T06:38:30;81800.22;;;2.92;97.15
64711;BME280;51139;45.626;6.850;2023-03-19T06:40:56;81805.00;;;3.23;93.58
64711;BME280;51139;45.626;6.850;2023-03-19T06:43:21;81811.00;;;3.10;95.82
64711;BME280;51139;45.626;6.850;2023-03-19T06:45:47;81813.88;;;3.19;93.31
64711;BME280;51139;45.626;6.850;2023-03-19T06:48:13;81815.31;;;3.28;96.02
64711;BME280;51139;45.626;6.850;2023-03-19T06:50:38;81821.63;;;3.62;92.58
64711;BME280;51139;45.626;6.850;2023-03-19T06:53:04;81826.06;;;2.96;95.81
64711;BME280;51139;45.626;6.850;2023-03-19T06:55:29;81832.34;;;2.71;99.24
64711;BME280;51139;45.626;6.850;2023-03-19T06:57:55;81833.59;;;3.20;97.73
64711;BME280;51139;45.626;6.850;2023-03-19T07:00:21;81825.44;;;2.82;97.91
64711;BME280;51139;45.626;6.850;2023-03-19T07:02:47;81832.28;;;3.35;96.29
64711;BME280;51139;45.626;6.850;2023-03-19T07:05:12;81828.00;;;2.95;97.11
64711;BME280;51139;45.626;6.850;2023-03-19T07:07:38;81836.13;;;3.63;94.98
64711;BME280;51139;45.626;6.850;2023-03-19T07:10:03;81831.09;;;3.44;94.76
64711;BME280;51139;45.626;6.850;2023-03-19T07:12:30;81833.91;;;3.46;94.81
64711;BME280;51139;45.626;6.850;2023-03-19T07:14:55;81831.16;;;3.80;93.12
64711;BME280;51139;45.626;6.850;2023-03-19T07:17:22;81837.84;;;3.89;91.45
64711;BME280;51139;45.626;6.850;2023-03-19T07:19:47;81838.81;;;4.07;86.04
64711;BME280;51139;45.626;6.850;2023-03-19T07:22:13;81852.28;;;4.12;85.26
64711;BME280;51139;45.626;6.850;2023-03-19T07:24:38;81854.56;;;4.15;82.96
64711;BME280;51139;45.626;6.850;2023-03-19T07:27:04;81856.50;;;3.86;87.34
64711;BME280;51139;45.626;6.850;2023-03-19T07:29:29;81846.31;;;3.45;91.22
64711;BME280;51139;45.626;6.850;2023-03-19T07:31:55;81859.66;;;2.84;100.00
64711;BME280;51139;45.626;6.850;2023-03-19T07:34:21;81857.06;;;3.34;100.00
64711;BME280;51139;45.626;6.850;2023-03-19T07:36:47;81860.78;;;3.17;99.12
64711;BME280;51139;45.626;6.850;2023-03-19T07:39:13;81855.56;;;3.17;99.70
64711;BME280;51139;45.626;6.850;2023-03-19T07:41:38;81858.28;;;3.62;96.30
64711;BME280;51139;45.626;6.850;2023-03-19T07:44:04;81856.59;;;4.01;90.35
64711;BME280;51139;45.626;6.850;2023-03-19T07:46:30;81857.47;;;4.04;90.13
64711;BME280;51139;45.626;6.850;2023-03-19T07:48:56;81856.78;;;3.16;92.75
64711;BME280;51139;45.626;6.850;2023-03-19T07:51:21;81858.09;;;2.67;100.00
64711;BME280;51139;45.626;6.850;2023-03-19T07:53:47;81854.09;;;2.87;99.77
64711;BME280;51139;45.626;6.850;2023-03-19T07:56:13;81856.00;;;3.08;99.74
64711;BME280;51139;45.626;6.850;2023-03-19T07:58:38;81868.47;;;2.59;100.00
64711;BME280;51139;45.626;6.850;2023-03-19T08:01:04;81879.28;;;1.81;100.00
64711;BME280;51139;45.626;6.850;2023-03-19T08:03:29;81879.13;;;2.61;100.00
64711;BME280;51139;45.626;6.850;2023-03-19T08:05:55;81865.94;;;2.88;100.00
64711;BME280;51139;45.626;6.850;2023-03-19T08:08:20;81872.03;;;3.04;100.00
64711;BME280;51139;45.626;6.850;2023-03-19T08:10:45;81872.28;;;2.93;100.00
64711;BME280;51139;45.626;6.850;2023-03-19T08:13:12;81868.00;;;2.47;100.00
64711;BME280;51139;45.626;6.850;2023-03-19T08:15:38;81872.63;;;2.55;100.00
64711;BME280;51139;45.626;6.850;2023-03-19T08:18:04;81867.56;;;2.57;100.00
64711;BME280;51139;45.626;6.850;2023-03-19T08:20:31;81873.88;;;3.17;100.00
64711;BME280;51139;45.626;6.850;2023-03-19T08:22:56;81871.44;;;3.70;100.00
64711;BME280;51139;45.626;6.850;2023-03-19T08:25:23;81861.75;;;3.28;100.00
64711;BME280;51139;45.626;6.850;2023-03-19T08:27:49;81868.03;;;2.69;100.00
64711;BME280;51139;45.626;6.850;2023-03-19T08:30:15;81875.28;;;1.53;100.00
64711;BME280;51139;45.626;6.850;2023-03-19T08:32:41;81881.31;;;1.34;100.00
64711;BME280;51139;45.626;6.850;2023-03-19T08:35:09;81879.72;;;1.58;100.00
64711;BME280;51139;45.626;6.850;2023-03-19T08:37:35;81874.22;;;2.10;100.00
64711;BME280;51139;45.626;6.850;2023-03-19T08:40:01;81875.88;;;1.72;100.00
64711;BME280;51139;45.626;6.850;2023-03-19T08:42:27;81867.44;;;1.93;100.00
64711;BME280;51139;45.626;6.850;2023-03-19T08:44:53;81865.00;;;2.43;100.00
64711;BME280;51139;45.626;6.850;2023-03-19T08:47:19;81875.41;;;2.57;100.00
64711;BME280;51139;45.626;6.850;2023-03-19T08:49:49;81875.44;;;2.78;100.00
64711;BME280;51139;45.626;6.850;2023-03-19T08:52:14;81871.84;;;3.24;96.48
64711;BME280;51139;45.626;6.850;2023-03-19T08:54:40;81872.34;;;3.22;97.21
64711;BME280;51139;45.626;6.850;2023-03-19T08:57:05;81865.56;;;3.05;96.02
64711;BME280;51139;45.626;6.850;2023-03-19T08:59:31;81871.25;;;3.17;97.67
64711;BME280;51139;45.626;6.850;2023-03-19T09:01:56;81872.50;;;3.45;94.72
64711;BME280;51139;45.626;6.850;2023-03-19T09:04:21;81883.31;;;2.99;95.38
64711;BME280;51139;45.626;6.850;2023-03-19T09:06:47;81881.78;;;3.25;97.70
64711;BME280;51139;45.626;6.850;2023-03-19T09:09:17;81890.19;;;3.53;92.56
64711;BME280;51139;45.626;6.850;2023-03-19T09:11:43;81891.19;;;4.00;88.66
64711;BME280;51139;45.626;6.850;2023-03-19T09:14:08;81894.97;;;3.91;84.01
64711;BME280;51139;45.626;6.850;2023-03-19T09:16:36;81892.53;;;4.22;81.74
64711;BME280;51139;45.626;6.850;2023-03-19T09:19:02;81894.72;;;4.10;79.08
64711;BME280;51139;45.626;6.850;2023-03-19T09:21:27;81894.34;;;3.98;80.98
64711;BME280;51139;45.626;6.850;2023-03-19T09:23:53;81901.41;;;4.19;80.53
64711;BME280;51139;45.626;6.850;2023-03-19T09:26:18;81898.03;;;4.40;79.60
64711;BME280;51139;45.626;6.850;2023-03-19T09:28:43;81899.66;;;4.58;78.38
64711;BME280;51139;45.626;6.850;2023-03-19T09:31:09;81900.63;;;4.40;79.56
64711;BME280;51139;45.626;6.850;2023-03-19T09:33:35;81895.63;;;4.49;81.50
64711;BME280;51139;45.626;6.850;2023-03-19T09:36:01;81898.50;;;4.30;92.16
64711;BME280;51139;45.626;6.850;2023-03-19T09:38:26;81899.81;;;4.52;93.04
64711;BME280;51139;45.626;6.850;2023-03-19T09:41:31;81901.81;;;4.31;93.68
64711;BME280;51139;45.626;6.850;2023-03-19T09:44:03;81900.03;;;4.26;96.85
64711;BME280;51139;45.626;6.850;2023-03-19T09:46:41;81901.47;;;3.98;97.39
64711;BME280;51139;45.626;6.850;2023-03-19T09:49:29;81897.16;;;4.08;95.84
64711;BME280;51139;45.626;6.850;2023-03-19T09:54:41;81902.97;;;3.56;100.00
64711;BME280;51139;45.626;6.850;2023-03-19T09:57:08;81900.84;;;3.76;100.00
64711;BME280;51139;45.626;6.850;2023-03-19T09:59:34;81890.19;;;3.53;100.00
64711;BME280;51139;45.626;6.850;2023-03-19T10:05:08;81895.69;;;3.62;97.11
64711;BME280;51139;45.626;6.850;2023-03-19T10:15:25;81901.69;;;3.49;100.00
64711;BME280;51139;45.626;6.850;2023-03-19T10:17:56;81902.44;;;3.58;100.00
64711;BME280;51139;45.626;6.850;2023-03-19T10:25:44;81897.66;;;3.70;100.00
64711;BME280;51139;45.626;6.850;2023-03-19T10:28:14;81903.72;;;3.93;99.54
64711;BME280;51139;45.626;6.850;2023-03-19T10:30:41;81903.19;;;3.95;100.00
64711;BME280;51139;45.626;6.850;2023-03-19T10:33:24;81904.59;;;3.67;100.00
64711;BME280;51139;45.626;6.850;2023-03-19T10:36:10;81900.53;;;3.87;99.71
64711;BME280;51139;45.626;6.850;2023-03-19T10:38:41;81899.94;;;4.02;95.99
64711;BME280;51139;45.626;6.850;2023-03-19T10:41:44;81894.91;;;4.12;96.76
64711;BME280;51139;45.626;6.850;2023-03-19T10:44:24;81899.84;;;4.60;95.34
64711;BME280;51139;45.626;6.850;2023-03-19T10:46:52;81891.06;;;4.50;93.81
64711;BME280;51139;45.626;6.850;2023-03-19T10:49:17;81896.09;;;4.40;95.74
64711;BME280;51139;45.626;6.850;2023-03-19T10:51:44;81901.19;;;4.46;96.34
64711;BME280;51139;45.626;6.850;2023-03-19T10:54:21;81891.19;;;4.89;95.86
64711;BME280;51139;45.626;6.850;2023-03-19T10:56:48;81889.53;;;4.55;96.89
64711;BME280;51139;45.626;6.850;2023-03-19T10:59:31;81895.81;;;4.59;96.69
64711;BME280;51139;45.626;6.850;2023-03-19T11:02:00;81896.06;;;4.85;97.08
64711;BME280;51139;45.626;6.850;2023-03-19T11:04:26;81897.50;;;4.93;95.02
64711;BME280;51139;45.626;6.850;2023-03-19T11:06:55;81897.72;;;4.51;97.54
64711;BME280;51139;45.626;6.850;2023-03-19T11:09:33;81898.13;;;4.63;97.85
64711;BME280;51139;45.626;6.850;2023-03-19T11:14:46;81894.03;;;4.09;100.00
64711;BME280;51139;45.626;6.850;2023-03-19T11:19:58;81897.91;;;3.58;100.00
64711;BME280;51139;45.626;6.850;2023-03-19T11:22:26;81892.22;;;3.97;100.00
64711;BME280;51139;45.626;6.850;2023-03-19T11:24:55;81895.22;;;4.37;100.00
64711;BME280;51139;45.626;6.850;2023-03-19T11:27:32;81898.19;;;4.42;100.00
64711;BME280;51139;45.626;6.850;2023-03-19T11:29:59;81904.47;;;4.83;100.00
64711;BME280;51139;45.626;6.850;2023-03-19T11:35:31;81893.56;;;4.63;100.00
64711;BME280;51139;45.626;6.850;2023-03-19T11:38:00;81904.16;;;4.05;100.00
64711;BME280;51139;45.626;6.850;2023-03-19T11:48:51;81900.38;;;3.93;100.00
64711;BME280;51139;45.626;6.850;2023-03-19T11:51:33;81900.66;;;3.74;100.00
64711;BME280;51139;45.626;6.850;2023-03-19T11:54:07;81903.19;;;4.24;100.00
64711;BME280;51139;45.626;6.850;2023-03-19T12:12:37;81899.31;;;4.17;100.00
64711;BME280;51139;45.626;6.850;2023-03-19T12:15:15;81891.50;;;3.96;100.00
64711;BME280;51139;45.626;6.850;2023-03-19T12:20:30;81893.44;;;3.96;100.00
64711;BME280;51139;45.626;6.850;2023-03-19T12:23:35;81887.28;;;4.22;100.00
64711;BME280;51139;45.626;6.850;2023-03-19T12:26:09;81895.31;;;4.61;100.00
64711;BME280;51139;45.626;6.850;2023-03-19T12:28:53;81888.16;;;4.77;100.00
64711;BME280;51139;45.626;6.850;2023-03-19T12:31:32;81887.66;;;4.78;100.00
64711;BME280;51139;45.626;6.850;2023-03-19T12:36:56;81889.28;;;4.89;98.55
64711;BME280;51139;45.626;6.850;2023-03-19T12:39:33;81889.53;;;4.62;100.00
64711;BME280;51139;45.626;6.850;2023-03-19T12:42:03;81883.28;;;4.73;100.00
64711;BME280;51139;45.626;6.850;2023-03-19T12:44:40;81883.91;;;4.58;100.00
64711;BME280;51139;45.626;6.850;2023-03-19T12:47:37;81891.28;;;4.67;100.00
64711;BME280;51139;45.626;6.850;2023-03-19T12:50:07;81883.19;;;4.50;100.00
64711;BME280;51139;45.626;6.850;2023-03-19T12:52:41;81882.41;;;4.34;100.00
64711;BME280;51139;45.626;6.850;2023-03-19T12:55:15;81877.13;;;4.18;100.00
64711;BME280;51139;45.626;6.850;2023-03-19T12:58:00;81877.81;;;4.19;100.00
64711;BME280;51139;45.626;6.850;2023-03-19T13:09:13;81879.91;;;4.20;100.00
64711;BME280;51139;45.626;6.850;2023-03-19T13:14:33;81879.78;;;4.34;100.00
64711;BME280;51139;45.626;6.850;2023-03-19T13:19:45;81876.31;;;4.31;100.00
64711;BME280;51139;45.626;6.850;2023-03-19T13:22:14;81884.72;;;4.01;100.00
64711;BME280;51139;45.626;6.850;2023-03-19T13:24:43;81886.72;;;3.87;100.00
64711;BME280;51139;45.626;6.850;2023-03-19T13:27:18;81886.91;;;3.89;100.00
64711;BME280;51139;45.626;6.850;2023-03-19T13:30:05;81883.25;;;4.21;100.00
64711;BME280;51139;45.626;6.850;2023-03-19T13:37:56;81886.22;;;4.62;100.00
64711;BME280;51139;45.626;6.850;2023-03-19T13:40:40;81886.38;;;4.56;100.00
64711;BME280;51139;45.626;6.850;2023-03-19T13:59:31;81879.31;;;4.95;99.17
64711;BME280;51139;45.626;6.850;2023-03-19T14:01:58;81881.25;;;5.10;99.57
64711;BME280;51139;45.626;6.850;2023-03-19T14:07:19;81877.56;;;4.90;100.00
64711;BME280;51139;45.626;6.850;2023-03-19T14:17:31;81872.41;;;4.17;100.00
64711;BME280;51139;45.626;6.850;2023-03-19T14:20:00;81877.06;;;4.47;100.00
64711;BME280;51139;45.626;6.850;2023-03-19T14:22:37;81872.22;;;4.59;100.00
64711;BME280;51139;45.626;6.850;2023-03-19T14:27:43;81863.66;;;4.59;100.00
64711;BME280;51139;45.626;6.850;2023-03-19T14:30:36;81874.28;;;4.53;100.00
64711;BME280;51139;45.626;6.850;2023-03-19T14:33:04;81876.06;;;4.14;100.00
64711;BME280;51139;45.626;6.850;2023-03-19T14:35:39;81870.44;;;4.54;100.00
64711;BME280;51139;45.626;6.850;2023-03-19T14:38:39;81877.75;;;4.48;100.00
64711;BME280;51139;45.626;6.850;2023-03-19T14:41:14;81877.44;;;4.59;100.00
64711;BME280;51139;45.626;6.850;2023-03-19T14:43:50;81872.34;;;4.46;100.00
64711;BME280;51139;45.626;6.850;2023-03-19T14:46:36;81877.88;;;4.34;100.00
64711;BME280;51139;45.626;6.850;2023-03-19T14:57:14;81865.22;;;4.17;100.00
64711;BME280;51139;45.626;6.850;2023-03-19T14:59:40;81864.03;;;3.89;100.00
64711;BME280;51139;45.626;6.850;2023-03-19T15:02:46;81862.69;;;4.41;100.00
64711;BME280;51139;45.626;6.850;2023-03-19T15:07:49;81869.84;;;4.40;100.00
64711;BME280;51139;45.626;6.850;2023-03-19T15:10:20;81865.00;;;4.52;100.00
64711;BME280;51139;45.626;6.850;2023-03-19T15:17:57;81863.16;;;4.76;100.00